sensor_id;sensor_type;location;lat;lon;timestamp;pressure;altitude;pressure_sealevel;temperature;humidity
48555;BME280;34336;48.270;16.716;2023-11-18T00:01:41;109325.25;;;18.16;60.82
48555;BME280;34336;48.270;16.716;2023-11-18T00:04:09;109325.25;;;18.16;61.27
48555;BME280;34336;48.270;16.716;2023-11-18T00:06:43;109325.25;;;18.16;60.89
48555;BME280;34336;48.270;16.716;2023-11-18T00:09:13;109325.25;;;18.16;61.66
48555;BME280;34336;48.270;16.716;2023-11-18T00:11:43;109325.25;;;18.16;62.16
48555;BME280;34336;48.270;16.716;2023-11-18T00:14:10;109325.25;;;18.16;62.05
48555;BME280;34336;48.270;16.716;2023-11-18T00:16:38;109325.25;;;18.16;61.97
48555;BME280;34336;48.270;16.716;2023-11-18T00:19:05;109325.25;;;18.16;62.29
48555;BME280;34336;48.270;16.716;2023-11-18T00:21:32;109325.25;;;18.16;62.55
48555;BME280;34336;48.270;16.716;2023-11-18T00:23:59;109325.25;;;18.16;63.19
48555;BME280;34336;48.270;16.716;2023-11-18T00:26:26;109325.25;;;18.16;63.47
48555;BME280;34336;48.270;16.716;2023-11-18T00:28:58;109325.25;;;18.16;63.23
48555;BME280;34336;48.270;16.716;2023-11-18T00:31:26;109325.25;;;18.16;63.89
48555;BME280;34336;48.270;16.716;2023-11-18T00:33:54;109325.25;;;18.16;63.75
48555;BME280;34336;48.270;16.716;2023-11-18T00:36:21;109325.25;;;18.16;63.03
48555;BME280;34336;48.270;16.716;2023-11-18T00:38:50;109325.25;;;18.16;63.15
48555;BME280;34336;48.270;16.716;2023-11-18T00:41:17;109325.25;;;18.16;63.39
48555;BME280;34336;48.270;16.716;2023-11-18T00:43:44;109325.25;;;18.16;63.42
48555;BME280;34336;48.270;16.716;2023-11-18T00:46:11;109325.25;;;18.16;63.31
48555;BME280;34336;48.270;16.716;2023-11-18T00:48:38;109325.25;;;18.16;63.09
48555;BME280;34336;48.270;16.716;2023-11-18T00:51:08;109325.25;;;18.16;63.09
48555;BME280;34336;48.270;16.716;2023-11-18T00:53:35;109325.25;;;18.16;63.38
48555;BME280;34336;48.270;16.716;2023-11-18T00:56:02;109325.25;;;18.16;63.01
48555;BME280;34336;48.270;16.716;2023-11-18T00:58:34;109325.25;;;18.16;62.93
48555;BME280;34336;48.270;16.716;2023-11-18T01:01:05;109325.25;;;18.16;63.51
48555;BME280;34336;48.270;16.716;2023-11-18T01:03:33;109325.25;;;18.16;63.29
48555;BME280;34336;48.270;16.716;2023-11-18T01:06:00;109325.25;;;18.16;62.98
48555;BME280;34336;48.270;16.716;2023-11-18T01:08:27;109325.25;;;18.16;63.45
48555;BME280;34336;48.270;16.716;2023-11-18T01:10:54;109325.25;;;18.16;63.38
48555;BME280;34336;48.270;16.716;2023-11-18T01:13:21;109325.25;;;18.16;64.21
48555;BME280;34336;48.270;16.716;2023-11-18T01:15:48;109325.25;;;18.16;63.93
48555;BME280;34336;48.270;16.716;2023-11-18T01:18:15;109325.25;;;18.16;64.37
48555;BME280;34336;48.270;16.716;2023-11-18T01:20:42;109325.25;;;18.16;64.09
48555;BME280;34336;48.270;16.716;2023-11-18T01:23:10;109325.25;;;18.16;64.15
48555;BME280;34336;48.270;16.716;2023-11-18T01:25:36;109325.25;;;18.16;64.32
48555;BME280;34336;48.270;16.716;2023-11-18T01:28:03;109325.25;;;18.16;64.13
48555;BME280;34336;48.270;16.716;2023-11-18T01:30:30;109325.25;;;18.16;64.23
48555;BME280;34336;48.270;16.716;2023-11-18T01:32:58;109325.25;;;18.16;63.98
48555;BME280;34336;48.270;16.716;2023-11-18T01:35:28;109325.25;;;18.16;64.12
48555;BME280;34336;48.270;16.716;2023-11-18T01:37:54;109325.25;;;18.16;63.90
48555;BME280;34336;48.270;16.716;2023-11-18T01:40:21;109325.25;;;18.16;63.89
48555;BME280;34336;48.270;16.716;2023-11-18T01:42:48;109325.25;;;18.16;64.86
48555;BME280;34336;48.270;16.716;2023-11-18T01:45:16;109325.25;;;18.16;64.39
48555;BME280;34336;48.270;16.716;2023-11-18T01:47:46;109325.25;;;18.16;64.43
48555;BME280;34336;48.270;16.716;2023-11-18T01:50:16;109325.25;;;18.16;64.53
48555;BME280;34336;48.270;16.716;2023-11-18T01:52:45;109325.25;;;18.16;64.72
48555;BME280;34336;48.270;16.716;2023-11-18T01:55:13;109325.25;;;18.16;64.67
48555;BME280;34336;48.270;16.716;2023-11-18T01:57:40;109325.25;;;18.16;64.52
48555;BME280;34336;48.270;16.716;2023-11-18T02:00:11;109325.25;;;18.16;64.56
48555;BME280;34336;48.270;16.716;2023-11-18T02:02:38;109325.25;;;18.16;64.35
48555;BME280;34336;48.270;16.716;2023-11-18T02:05:06;109325.25;;;18.16;64.61
48555;BME280;34336;48.270;16.716;2023-11-18T02:07:35;109325.25;;;18.16;64.67
48555;BME280;34336;48.270;16.716;2023-11-18T02:10:06;109325.25;;;18.16;64.40
48555;BME280;34336;48.270;16.716;2023-11-18T02:12:44;109325.25;;;18.16;64.31
48555;BME280;34336;48.270;16.716;2023-11-18T02:15:15;109325.25;;;18.16;64.14
48555;BME280;34336;48.270;16.716;2023-11-18T02:17:43;109325.25;;;18.16;64.93
48555;BME280;34336;48.270;16.716;2023-11-18T02:20:12;109325.25;;;18.16;64.93
48555;BME280;34336;48.270;16.716;2023-11-18T02:22:44;109325.25;;;18.16;65.09
48555;BME280;34336;48.270;16.716;2023-11-18T02:25:17;109325.25;;;18.16;65.14
48555;BME280;34336;48.270;16.716;2023-11-18T02:27:45;109325.25;;;18.16;64.85
48555;BME280;34336;48.270;16.716;2023-11-18T02:30:16;109325.25;;;18.16;64.95
48555;BME280;34336;48.270;16.716;2023-11-18T02:32:45;109325.25;;;18.16;64.82
48555;BME280;34336;48.270;16.716;2023-11-18T02:37:46;109325.25;;;18.16;64.29
48555;BME280;34336;48.270;16.716;2023-11-18T02:40:20;109325.25;;;18.16;64.02
48555;BME280;34336;48.270;16.716;2023-11-18T02:42:48;109325.25;;;18.16;64.27
48555;BME280;34336;48.270;16.716;2023-11-18T02:45:20;109325.25;;;18.16;64.17
48555;BME280;34336;48.270;16.716;2023-11-18T02:47:47;109325.25;;;18.16;64.33
48555;BME280;34336;48.270;16.716;2023-11-18T02:50:15;109325.25;;;18.16;64.38
48555;BME280;34336;48.270;16.716;2023-11-18T02:52:43;109325.25;;;18.16;64.24
48555;BME280;34336;48.270;16.716;2023-11-18T02:55:11;109325.25;;;18.16;64.01
48555;BME280;34336;48.270;16.716;2023-11-18T02:57:38;109325.25;;;18.16;64.48
48555;BME280;34336;48.270;16.716;2023-11-18T03:00:06;109325.25;;;18.16;64.43
48555;BME280;34336;48.270;16.716;2023-11-18T03:02:38;109325.25;;;18.16;65.17
48555;BME280;34336;48.270;16.716;2023-11-18T03:05:07;109325.25;;;18.16;65.52
48555;BME280;34336;48.270;16.716;2023-11-18T03:07:34;109325.25;;;18.16;65.59
48555;BME280;34336;48.270;16.716;2023-11-18T03:10:01;109325.25;;;18.16;65.64
48555;BME280;34336;48.270;16.716;2023-11-18T03:12:27;109325.25;;;18.16;66.18
48555;BME280;34336;48.270;16.716;2023-11-18T03:14:55;109325.25;;;18.16;66.34
48555;BME280;34336;48.270;16.716;2023-11-18T03:17:22;109325.25;;;18.16;65.72
48555;BME280;34336;48.270;16.716;2023-11-18T03:19:49;109325.25;;;18.16;65.44
48555;BME280;34336;48.270;16.716;2023-11-18T03:22:17;109325.25;;;18.16;65.31
48555;BME280;34336;48.270;16.716;2023-11-18T03:24:44;109325.25;;;18.16;65.80
48555;BME280;34336;48.270;16.716;2023-11-18T03:27:10;109325.25;;;18.16;65.28
48555;BME280;34336;48.270;16.716;2023-11-18T03:29:37;109325.25;;;18.16;65.31
48555;BME280;34336;48.270;16.716;2023-11-18T03:32:06;109325.25;;;18.16;65.58
48555;BME280;34336;48.270;16.716;2023-11-18T03:34:33;109325.25;;;18.16;66.27
48555;BME280;34336;48.270;16.716;2023-11-18T03:37:00;109325.25;;;18.16;65.95
48555;BME280;34336;48.270;16.716;2023-11-18T03:39:27;109325.25;;;18.16;66.04
48555;BME280;34336;48.270;16.716;2023-11-18T03:41:54;109325.25;;;18.16;66.14
48555;BME280;34336;48.270;16.716;2023-11-18T03:44:23;109325.25;;;18.16;66.67
48555;BME280;34336;48.270;16.716;2023-11-18T03:46:54;109325.25;;;18.16;66.04
48555;BME280;34336;48.270;16.716;2023-11-18T03:49:21;109325.25;;;18.16;66.15
48555;BME280;34336;48.270;16.716;2023-11-18T03:51:47;109325.25;;;18.16;66.44
48555;BME280;34336;48.270;16.716;2023-11-18T03:54:14;109325.25;;;18.16;66.84
48555;BME280;34336;48.270;16.716;2023-11-18T03:56:41;109325.25;;;18.16;66.36
48555;BME280;34336;48.270;16.716;2023-11-18T03:59:08;109325.25;;;18.16;66.34
48555;BME280;34336;48.270;16.716;2023-11-18T04:01:36;109325.25;;;18.16;66.65
48555;BME280;34336;48.270;16.716;2023-11-18T04:04:03;109325.25;;;18.16;66.73
48555;BME280;34336;48.270;16.716;2023-11-18T04:06:31;109325.25;;;18.16;66.91
48555;BME280;34336;48.270;16.716;2023-11-18T04:08:58;109325.25;;;18.16;66.62
48555;BME280;34336;48.270;16.716;2023-11-18T04:11:25;109325.25;;;18.16;67.20
48555;BME280;34336;48.270;16.716;2023-11-18T04:13:52;109325.25;;;18.16;67.35
48555;BME280;34336;48.270;16.716;2023-11-18T04:16:19;109325.25;;;18.16;67.52
48555;BME280;34336;48.270;16.716;2023-11-18T04:18:46;109325.25;;;18.16;67.87
48555;BME280;34336;48.270;16.716;2023-11-18T04:21:13;109325.25;;;18.16;68.30
48555;BME280;34336;48.270;16.716;2023-11-18T04:23:42;109325.25;;;18.16;67.95
48555;BME280;34336;48.270;16.716;2023-11-18T04:26:10;109325.25;;;18.16;67.33
48555;BME280;34336;48.270;16.716;2023-11-18T04:28:37;109325.25;;;18.16;67.97
48555;BME280;34336;48.270;16.716;2023-11-18T04:31:04;109325.25;;;18.16;67.77
48555;BME280;34336;48.270;16.716;2023-11-18T04:33:32;109325.25;;;18.16;68.06
48555;BME280;34336;48.270;16.716;2023-11-18T04:36:00;109325.25;;;18.16;67.94
48555;BME280;34336;48.270;16.716;2023-11-18T04:38:27;109325.25;;;18.16;68.50
48555;BME280;34336;48.270;16.716;2023-11-18T04:40:54;109325.25;;;18.16;68.69
48555;BME280;34336;48.270;16.716;2023-11-18T04:43:22;109325.25;;;18.16;69.18
48555;BME280;34336;48.270;16.716;2023-11-18T04:46:07;109325.25;;;18.16;69.05
48555;BME280;34336;48.270;16.716;2023-11-18T04:48:34;109325.25;;;18.16;68.90
48555;BME280;34336;48.270;16.716;2023-11-18T04:51:07;109325.25;;;18.16;68.85
48555;BME280;34336;48.270;16.716;2023-11-18T04:53:33;109325.25;;;18.16;69.16
48555;BME280;34336;48.270;16.716;2023-11-18T04:56:01;109325.25;;;18.16;69.43
48555;BME280;34336;48.270;16.716;2023-11-18T04:58:29;109325.25;;;18.16;69.21
48555;BME280;34336;48.270;16.716;2023-11-18T05:00:55;109325.25;;;18.16;69.69
48555;BME280;34336;48.270;16.716;2023-11-18T05:03:23;109325.25;;;18.16;69.81
48555;BME280;34336;48.270;16.716;2023-11-18T05:05:51;109325.25;;;18.16;70.31
48555;BME280;34336;48.270;16.716;2023-11-18T05:08:22;109325.25;;;18.16;70.12
48555;BME280;34336;48.270;16.716;2023-11-18T05:10:49;109325.25;;;18.16;69.86
48555;BME280;34336;48.270;16.716;2023-11-18T05:13:17;109325.25;;;18.16;69.56
48555;BME280;34336;48.270;16.716;2023-11-18T05:15:46;109325.25;;;18.16;69.77
48555;BME280;34336;48.270;16.716;2023-11-18T05:18:13;109325.25;;;18.16;69.21
48555;BME280;34336;48.270;16.716;2023-11-18T05:20:43;109325.25;;;18.16;69.32
48555;BME280;34336;48.270;16.716;2023-11-18T05:23:11;109325.25;;;18.16;68.98
48555;BME280;34336;48.270;16.716;2023-11-18T05:25:44;109325.25;;;18.16;69.48
48555;BME280;34336;48.270;16.716;2023-11-18T05:28:11;109325.25;;;18.16;69.63
48555;BME280;34336;48.270;16.716;2023-11-18T05:30:41;109325.25;;;18.16;69.12
48555;BME280;34336;48.270;16.716;2023-11-18T05:33:09;109325.25;;;18.16;69.54
48555;BME280;34336;48.270;16.716;2023-11-18T05:35:41;109325.25;;;18.16;69.42
48555;BME280;34336;48.270;16.716;2023-11-18T05:38:19;109325.25;;;18.16;68.20
48555;BME280;34336;48.270;16.716;2023-11-18T05:40:48;109325.25;;;18.16;68.26
48555;BME280;34336;48.270;16.716;2023-11-18T05:43:28;109325.25;;;18.16;67.92
48555;BME280;34336;48.270;16.716;2023-11-18T05:45:57;109325.25;;;18.16;67.54
48555;BME280;34336;48.270;16.716;2023-11-18T05:48:44;109325.25;;;18.16;67.50
48555;BME280;34336;48.270;16.716;2023-11-18T05:51:11;109325.25;;;18.16;66.97
48555;BME280;34336;48.270;16.716;2023-11-18T05:53:42;109325.25;;;18.16;66.89
48555;BME280;34336;48.270;16.716;2023-11-18T05:56:13;109325.25;;;18.16;66.68
48555;BME280;34336;48.270;16.716;2023-11-18T05:58:40;109325.25;;;18.16;66.66
48555;BME280;34336;48.270;16.716;2023-11-18T06:01:07;109325.25;;;18.16;66.78
48555;BME280;34336;48.270;16.716;2023-11-18T06:03:35;109325.25;;;18.16;67.02
48555;BME280;34336;48.270;16.716;2023-11-18T06:06:10;109325.25;;;18.16;67.15
48555;BME280;34336;48.270;16.716;2023-11-18T06:08:38;109325.25;;;18.16;67.19
48555;BME280;34336;48.270;16.716;2023-11-18T06:11:09;109325.25;;;18.16;66.85
48555;BME280;34336;48.270;16.716;2023-11-18T06:13:49;109325.25;;;18.16;66.81
48555;BME280;34336;48.270;16.716;2023-11-18T06:16:19;109325.25;;;18.16;67.06
48555;BME280;34336;48.270;16.716;2023-11-18T06:18:51;109325.25;;;18.16;66.90
48555;BME280;34336;48.270;16.716;2023-11-18T06:21:19;109325.25;;;18.16;66.06
48555;BME280;34336;48.270;16.716;2023-11-18T06:23:48;109325.25;;;18.16;66.20
48555;BME280;34336;48.270;16.716;2023-11-18T06:26:15;109325.25;;;18.16;66.33
48555;BME280;34336;48.270;16.716;2023-11-18T06:28:43;109325.25;;;18.16;66.63
48555;BME280;34336;48.270;16.716;2023-11-18T06:31:11;109325.25;;;18.16;66.60
48555;BME280;34336;48.270;16.716;2023-11-18T06:33:39;109325.25;;;18.16;66.52
48555;BME280;34336;48.270;16.716;2023-11-18T06:38:40;109325.25;;;18.16;66.94
48555;BME280;34336;48.270;16.716;2023-11-18T06:41:07;109325.25;;;18.16;67.48
48555;BME280;34336;48.270;16.716;2023-11-18T06:43:41;109325.25;;;18.16;67.25
48555;BME280;34336;48.270;16.716;2023-11-18T06:46:32;109325.25;;;18.16;67.18
48555;BME280;34336;48.270;16.716;2023-11-18T06:49:02;109325.25;;;18.16;67.41
48555;BME280;34336;48.270;16.716;2023-11-18T06:51:31;109325.25;;;18.16;67.65
48555;BME280;34336;48.270;16.716;2023-11-18T06:54:02;109325.25;;;18.16;67.97
48555;BME280;34336;48.270;16.716;2023-11-18T06:56:36;109325.25;;;18.16;67.75
48555;BME280;34336;48.270;16.716;2023-11-18T06:59:05;109325.25;;;18.16;67.82
48555;BME280;34336;48.270;16.716;2023-11-18T07:01:34;109325.25;;;18.16;68.03
48555;BME280;34336;48.270;16.716;2023-11-18T07:04:00;109325.25;;;18.16;68.16
48555;BME280;34336;48.270;16.716;2023-11-18T07:06:27;109325.25;;;18.16;67.79
48555;BME280;34336;48.270;16.716;2023-11-18T07:08:55;109325.25;;;18.16;66.86
48555;BME280;34336;48.270;16.716;2023-11-18T07:11:27;109325.25;;;18.16;66.04
48555;BME280;34336;48.270;16.716;2023-11-18T07:13:54;109325.25;;;18.16;64.40
48555;BME280;34336;48.270;16.716;2023-11-18T07:16:24;109325.25;;;18.16;64.24
48555;BME280;34336;48.270;16.716;2023-11-18T07:18:51;109325.25;;;18.16;63.46
48555;BME280;34336;48.270;16.716;2023-11-18T07:21:19;109325.25;;;18.16;63.12
48555;BME280;34336;48.270;16.716;2023-11-18T07:23:46;109325.25;;;18.16;62.67
48555;BME280;34336;48.270;16.716;2023-11-18T07:26:13;109325.25;;;18.16;61.57
48555;BME280;34336;48.270;16.716;2023-11-18T07:28:42;109325.25;;;18.16;61.80
48555;BME280;34336;48.270;16.716;2023-11-18T07:31:11;109325.25;;;18.16;60.85
48555;BME280;34336;48.270;16.716;2023-11-18T07:33:38;109325.25;;;18.16;60.90
48555;BME280;34336;48.270;16.716;2023-11-18T07:36:09;109325.25;;;18.16;60.94
48555;BME280;34336;48.270;16.716;2023-11-18T07:38:37;109325.25;;;18.16;60.84
48555;BME280;34336;48.270;16.716;2023-11-18T07:41:04;109325.25;;;18.16;60.76
48555;BME280;34336;48.270;16.716;2023-11-18T07:43:35;109325.25;;;18.16;61.00
48555;BME280;34336;48.270;16.716;2023-11-18T07:46:07;109325.25;;;18.16;61.02
48555;BME280;34336;48.270;16.716;2023-11-18T07:48:35;109325.25;;;18.16;61.62
48555;BME280;34336;48.270;16.716;2023-11-18T07:51:02;109325.25;;;18.16;61.10
48555;BME280;34336;48.270;16.716;2023-11-18T07:53:28;109325.25;;;18.16;60.66
48555;BME280;34336;48.270;16.716;2023-11-18T07:55:56;109325.25;;;18.16;60.56
48555;BME280;34336;48.270;16.716;2023-11-18T07:58:23;109325.25;;;18.16;60.52
48555;BME280;34336;48.270;16.716;2023-11-18T08:00:50;109325.25;;;18.16;60.15
48555;BME280;34336;48.270;16.716;2023-11-18T08:03:17;109325.25;;;18.16;59.77
48555;BME280;34336;48.270;16.716;2023-11-18T08:05:44;109325.25;;;18.16;59.97
48555;BME280;34336;48.270;16.716;2023-11-18T08:08:13;109325.25;;;18.16;59.89
48555;BME280;34336;48.270;16.716;2023-11-18T08:10:40;109325.25;;;18.16;60.40
48555;BME280;34336;48.270;16.716;2023-11-18T08:13:09;109325.25;;;18.16;60.14
48555;BME280;34336;48.270;16.716;2023-11-18T08:15:41;109325.25;;;18.16;60.10
48555;BME280;34336;48.270;16.716;2023-11-18T08:18:08;109325.25;;;18.16;59.86
48555;BME280;34336;48.270;16.716;2023-11-18T08:20:37;109325.25;;;18.16;59.94
48555;BME280;34336;48.270;16.716;2023-11-18T08:23:04;109325.25;;;18.16;59.55
48555;BME280;34336;48.270;16.716;2023-11-18T08:25:31;109325.25;;;18.16;59.44
48555;BME280;34336;48.270;16.716;2023-11-18T08:28:03;109325.25;;;18.16;59.43
48555;BME280;34336;48.270;16.716;2023-11-18T08:30:31;109325.25;;;18.16;59.46
48555;BME280;34336;48.270;16.716;2023-11-18T08:33:00;109325.25;;;18.16;59.22
48555;BME280;34336;48.270;16.716;2023-11-18T08:35:31;109325.25;;;18.16;59.44
48555;BME280;34336;48.270;16.716;2023-11-18T08:37:58;109325.25;;;18.16;59.53
48555;BME280;34336;48.270;16.716;2023-11-18T08:40:27;109325.25;;;18.16;59.67
48555;BME280;34336;48.270;16.716;2023-11-18T08:42:54;109325.25;;;18.16;59.56
48555;BME280;34336;48.270;16.716;2023-11-18T08:45:24;109325.25;;;18.16;58.80
48555;BME280;34336;48.270;16.716;2023-11-18T08:47:56;109325.25;;;18.16;58.48
48555;BME280;34336;48.270;16.716;2023-11-18T08:50:24;109325.25;;;18.16;58.09
48555;BME280;34336;48.270;16.716;2023-11-18T08:52:55;109325.25;;;18.16;59.07
48555;BME280;34336;48.270;16.716;2023-11-18T08:55:27;109325.25;;;18.16;58.36
48555;BME280;34336;48.270;16.716;2023-11-18T08:58:11;109325.25;;;18.16;57.97
48555;BME280;34336;48.270;16.716;2023-11-18T09:00:57;109325.25;;;18.16;58.81
48555;BME280;34336;48.270;16.716;2023-11-18T09:03:41;109325.25;;;18.16;58.05
48555;BME280;34336;48.270;16.716;2023-11-18T09:06:15;109325.25;;;18.16;57.75
48555;BME280;34336;48.270;16.716;2023-11-18T09:08:47;109325.25;;;18.16;58.31
48555;BME280;34336;48.270;16.716;2023-11-18T09:11:23;109325.25;;;18.16;57.96
48555;BME280;34336;48.270;16.716;2023-11-18T09:13:53;109325.25;;;18.16;58.09
48555;BME280;34336;48.270;16.716;2023-11-18T09:16:21;109325.25;;;18.16;57.46
48555;BME280;34336;48.270;16.716;2023-11-18T09:18:49;109325.25;;;18.16;57.39
48555;BME280;34336;48.270;16.716;2023-11-18T09:21:17;109325.25;;;18.16;57.46
48555;BME280;34336;48.270;16.716;2023-11-18T09:23:52;109325.25;;;18.16;57.09
48555;BME280;34336;48.270;16.716;2023-11-18T09:26:18;109325.25;;;18.16;56.58
48555;BME280;34336;48.270;16.716;2023-11-18T09:28:45;109325.25;;;18.16;57.30
48555;BME280;34336;48.270;16.716;2023-11-18T09:31:12;109325.25;;;18.16;57.22
48555;BME280;34336;48.270;16.716;2023-11-18T09:33:41;109325.25;;;18.16;57.51
48555;BME280;34336;48.270;16.716;2023-11-18T09:36:13;109325.25;;;18.16;56.83
48555;BME280;34336;48.270;16.716;2023-11-18T09:38:40;109325.25;;;18.16;56.91
48555;BME280;34336;48.270;16.716;2023-11-18T09:41:09;109325.25;;;18.16;56.46
48555;BME280;34336;48.270;16.716;2023-11-18T09:43:41;109325.25;;;18.16;56.65
48555;BME280;34336;48.270;16.716;2023-11-18T09:46:23;109325.25;;;18.16;55.75
48555;BME280;34336;48.270;16.716;2023-11-18T09:48:52;109325.25;;;18.16;55.38
48555;BME280;34336;48.270;16.716;2023-11-18T09:51:27;109325.25;;;18.16;54.53
48555;BME280;34336;48.270;16.716;2023-11-18T09:54:00;109325.25;;;18.16;53.65
48555;BME280;34336;48.270;16.716;2023-11-18T09:59:18;109325.25;;;18.16;53.96
48555;BME280;34336;48.270;16.716;2023-11-18T10:01:50;109325.25;;;18.16;53.88
48555;BME280;34336;48.270;16.716;2023-11-18T10:04:20;109325.25;;;18.16;53.67
48555;BME280;34336;48.270;16.716;2023-11-18T10:06:47;109325.25;;;18.16;54.45
48555;BME280;34336;48.270;16.716;2023-11-18T10:09:16;109325.25;;;18.16;54.44
48555;BME280;34336;48.270;16.716;2023-11-18T10:11:47;109325.25;;;18.16;54.71
48555;BME280;34336;48.270;16.716;2023-11-18T10:14:14;109325.25;;;18.16;56.98
48555;BME280;34336;48.270;16.716;2023-11-18T10:16:44;109325.25;;;18.16;57.61
48555;BME280;34336;48.270;16.716;2023-11-18T10:19:15;109325.25;;;18.16;57.99
48555;BME280;34336;48.270;16.716;2023-11-18T10:21:45;109325.25;;;18.16;58.28
48555;BME280;34336;48.270;16.716;2023-11-18T10:24:16;109325.25;;;18.16;58.18
48555;BME280;34336;48.270;16.716;2023-11-18T10:26:56;109325.25;;;18.16;58.79
48555;BME280;34336;48.270;16.716;2023-11-18T10:29:26;109325.25;;;18.16;59.14
48555;BME280;34336;48.270;16.716;2023-11-18T10:32:04;109325.25;;;18.16;58.66
48555;BME280;34336;48.270;16.716;2023-11-18T10:34:35;109325.25;;;18.16;59.28
48555;BME280;34336;48.270;16.716;2023-11-18T10:37:02;109325.25;;;18.16;58.77
48555;BME280;34336;48.270;16.716;2023-11-18T10:39:31;109325.25;;;18.16;59.15
48555;BME280;34336;48.270;16.716;2023-11-18T10:42:02;109325.25;;;18.16;59.28
48555;BME280;34336;48.270;16.716;2023-11-18T10:44:29;109325.25;;;18.16;58.51
48555;BME280;34336;48.270;16.716;2023-11-18T10:46:56;109325.25;;;18.16;58.12
48555;BME280;34336;48.270;16.716;2023-11-18T10:49:29;109325.25;;;18.16;57.17
48555;BME280;34336;48.270;16.716;2023-11-18T10:52:04;109325.25;;;18.16;57.38
48555;BME280;34336;48.270;16.716;2023-11-18T10:54:34;109325.25;;;18.16;57.59
48555;BME280;34336;48.270;16.716;2023-11-18T10:57:01;109325.25;;;18.16;57.82
48555;BME280;34336;48.270;16.716;2023-11-18T10:59:34;109325.25;;;18.16;58.72
48555;BME280;34336;48.270;16.716;2023-11-18T11:02:18;109325.25;;;18.16;59.52
48555;BME280;34336;48.270;16.716;2023-11-18T11:04:46;109325.25;;;18.16;60.08
48555;BME280;34336;48.270;16.716;2023-11-18T11:07:13;109325.25;;;18.16;59.28
48555;BME280;34336;48.270;16.716;2023-11-18T11:09:40;109325.25;;;18.16;58.96
48555;BME280;34336;48.270;16.716;2023-11-18T11:12:10;109325.25;;;18.16;59.14
48555;BME280;34336;48.270;16.716;2023-11-18T11:14:47;109325.25;;;18.16;59.14
48555;BME280;34336;48.270;16.716;2023-11-18T11:17:19;109325.25;;;18.16;59.55
48555;BME280;34336;48.270;16.716;2023-11-18T11:20:07;109325.25;;;18.16;59.77
48555;BME280;34336;48.270;16.716;2023-11-18T11:26:10;109325.25;;;18.16;59.59
48555;BME280;34336;48.270;16.716;2023-11-18T11:28:43;109325.25;;;18.16;59.02
48555;BME280;34336;48.270;16.716;2023-11-18T11:31:22;109325.25;;;18.16;59.02
48555;BME280;34336;48.270;16.716;2023-11-18T11:34:02;109325.25;;;18.16;58.84
48555;BME280;34336;48.270;16.716;2023-11-18T11:36:46;109325.25;;;18.16;58.21
48555;BME280;34336;48.270;16.716;2023-11-18T11:39:13;109325.25;;;18.16;58.72
48555;BME280;34336;48.270;16.716;2023-11-18T11:41:51;109325.25;;;18.16;58.67
48555;BME280;34336;48.270;16.716;2023-11-18T11:44:18;109325.25;;;18.16;59.50
48555;BME280;34336;48.270;16.716;2023-11-18T11:46:48;109325.25;;;18.16;58.84
48555;BME280;34336;48.270;16.716;2023-11-18T11:49:21;109325.25;;;18.16;58.86
48555;BME280;34336;48.270;16.716;2023-11-18T11:51:52;109325.25;;;18.16;58.63
48555;BME280;34336;48.270;16.716;2023-11-18T11:54:26;109325.25;;;18.16;59.13
48555;BME280;34336;48.270;16.716;2023-11-18T11:56:57;109325.25;;;18.16;58.94
48555;BME280;34336;48.270;16.716;2023-11-18T11:59:54;109325.25;;;18.16;59.20
48555;BME280;34336;48.270;16.716;2023-11-18T12:02:24;109325.25;;;18.16;59.01
48555;BME280;34336;48.270;16.716;2023-11-18T12:04:55;109325.25;;;18.16;59.62
48555;BME280;34336;48.270;16.716;2023-11-18T12:07:25;109325.25;;;18.16;59.32
48555;BME280;34336;48.270;16.716;2023-11-18T12:09:58;109325.25;;;18.16;59.10
48555;BME280;34336;48.270;16.716;2023-11-18T12:12:25;109325.25;;;18.16;59.11
48555;BME280;34336;48.270;16.716;2023-11-18T12:14:57;109325.25;;;18.16;59.36
48555;BME280;34336;48.270;16.716;2023-11-18T12:20:45;109325.25;;;18.16;59.22
48555;BME280;34336;48.270;16.716;2023-11-18T12:23:15;109325.25;;;18.16;58.86
48555;BME280;34336;48.270;16.716;2023-11-18T12:25:45;109325.25;;;18.16;59.01
48555;BME280;34336;48.270;16.716;2023-11-18T12:28:16;109325.25;;;18.16;59.17
48555;BME280;34336;48.270;16.716;2023-11-18T12:30:48;109325.25;;;18.16;59.38
48555;BME280;34336;48.270;16.716;2023-11-18T12:33:25;109325.25;;;18.16;59.00
48555;BME280;34336;48.270;16.716;2023-11-18T12:42:05;109325.25;;;18.16;59.66
48555;BME280;34336;48.270;16.716;2023-11-18T12:47:33;109325.25;;;18.16;59.47
48555;BME280;34336;48.270;16.716;2023-11-18T12:50:09;109325.25;;;18.16;58.75
48555;BME280;34336;48.270;16.716;2023-11-18T12:52:44;109325.25;;;18.16;59.15
48555;BME280;34336;48.270;16.716;2023-11-18T12:55:12;109325.25;;;18.16;58.43
48555;BME280;34336;48.270;16.716;2023-11-18T12:57:46;109325.25;;;18.16;58.78
48555;BME280;34336;48.270;16.716;2023-11-18T13:00:17;109325.25;;;18.16;58.58
48555;BME280;34336;48.270;16.716;2023-11-18T13:02:54;109325.25;;;18.16;58.72
48555;BME280;34336;48.270;16.716;2023-11-18T13:05:21;109325.25;;;18.16;59.43
48555;BME280;34336;48.270;16.716;2023-11-18T13:07:49;109325.25;;;18.16;59.19
48555;BME280;34336;48.270;16.716;2023-11-18T13:10:16;109325.25;;;18.16;59.34
48555;BME280;34336;48.270;16.716;2023-11-18T13:12:43;109325.25;;;18.16;59.24
48555;BME280;34336;48.270;16.716;2023-11-18T13:15:11;109325.25;;;18.16;59.23
48555;BME280;34336;48.270;16.716;2023-11-18T13:17:38;109325.25;;;18.16;59.12